Time;durP1;ratioP1;P1;durP2;ratioP2;P2;SDS_P1;SDS_P2;PMS_P1;PMS_P2;Temp;Humidity;BMP_temperature;BMP_pressure;BME280_temperature;BME280_humidity;BME280_pressure;Samples;Min_cycle;Max_cycle;Signal;HPM_P1;HPM_P2
2021/04/30 00:02:03;;;;;;;10.00;5.70;;;;;;;;;;10485278;28;20683;-70
2021/04/30 00:07:05;;;;;;;11.40;6.33;;;;;;;;;;10486835;28;20216;-70
2021/04/30 00:12:08;;;;;;;11.17;5.53;;;;;;;;;;10482086;28;20665;-71
2021/04/30 00:17:10;;;;;;;10.83;6.10;;;;;;;;;;10517338;28;20656;-70
2021/04/30 00:22:12;;;;;;;10.57;6.17;;;;;;;;;;10481789;28;20220;-71
2021/04/30 00:27:14;;;;;;;10.97;5.80;;;;;;;;;;10473837;28;20619;-72
2021/04/30 00:32:16;;;;;;;11.50;7.20;;;;;;;;;;10483725;28;20208;-72
2021/04/30 00:37:18;;;;;;;8.03;4.80;;;;;;;;;;10476365;28;20702;-71
2021/04/30 00:42:20;;;;;;;9.63;5.20;;;;;;;;;;10484845;28;20212;-71
2021/04/30 00:47:26;;;;;;;9.70;5.67;;;;;;;;;;10480003;28;20215;-71
2021/04/30 00:52:27;;;;;;;7.30;4.07;;;;;;;;;;10485573;28;20565;-72
2021/04/30 00:57:30;;;;;;;10.37;5.17;;;;;;;;;;10486945;28;20224;-71
2021/04/30 01:02:31;;;;;;;10.00;5.80;;;;;;;;;;10482312;28;20216;-70
2021/04/30 01:07:33;;;;;;;9.03;4.57;;;;;;;;;;10478084;28;20322;-71
2021/04/30 01:12:36;;;;;;;9.87;5.37;;;;;;;;;;10476603;28;20281;-71
2021/04/30 01:17:38;;;;;;;10.27;5.33;;;;;;;;;;10484947;28;20591;-70
2021/04/30 01:22:41;;;;;;;8.63;4.87;;;;;;;;;;10481749;28;20584;-71
2021/04/30 01:27:42;;;;;;;10.67;4.60;;;;;;;;;;10489667;28;20204;-70
2021/04/30 01:32:44;;;;;;;9.40;4.90;;;;;;;;;;10492062;28;20216;-71
2021/04/30 01:37:47;;;;;;;10.40;4.57;;;;;;;;;;10483046;28;20287;-70
2021/04/30 01:43:02;;;;;;;6.60;3.50;;;;;;;;;;10491518;28;20208;-72
2021/04/30 01:48:06;;;;;;;8.30;4.37;;;;;;;;;;10486912;28;20204;-69
2021/04/30 01:53:09;;;;;;;7.90;4.00;;;;;;;;;;10482743;28;20225;-69
2021/04/30 01:58:11;;;;;;;8.63;4.00;;;;;;;;;;10491038;28;20192;-69
2021/04/30 02:03:13;;;;;;;7.43;3.77;;;;;;;;;;10482726;28;20208;-69
2021/04/30 02:08:16;;;;;;;8.93;4.20;;;;;;;;;;10486379;28;20821;-69
2021/04/30 02:13:19;;;;;;;8.30;4.17;;;;;;;;;;10484593;28;20272;-68
2021/04/30 02:18:21;;;;;;;6.57;3.63;;;;;;;;;;10489836;28;20262;-70
2021/04/30 02:23:24;;;;;;;8.10;4.13;;;;;;;;;;10483320;28;20211;-70
2021/04/30 02:28:25;;;;;;;8.03;4.07;;;;;;;;;;10485399;28;20243;-69
2021/04/30 02:33:27;;;;;;;7.00;4.23;;;;;;;;;;10489337;28;20238;-69
2021/04/30 02:38:31;;;;;;;6.70;3.93;;;;;;;;;;10472633;28;20270;-68
2021/04/30 02:43:32;;;;;;;7.97;3.90;;;;;;;;;;10490298;28;20220;-70
2021/04/30 02:48:37;;;;;;;7.23;4.10;;;;;;;;;;10485896;28;20188;-69
2021/04/30 02:53:40;;;;;;;6.97;3.80;;;;;;;;;;10488219;28;20231;-71
2021/04/30 02:58:41;;;;;;;8.50;4.33;;;;;;;;;;10483248;28;20290;-69
2021/04/30 03:03:43;;;;;;;8.57;4.00;;;;;;;;;;10483167;28;20570;-71
2021/04/30 03:08:51;;;;;;;9.23;4.50;;;;;;;;;;10481542;28;20262;-71
2021/04/30 03:13:52;;;;;;;8.37;5.03;;;;;;;;;;10483886;28;20610;-71
2021/04/30 03:18:54;;;;;;;9.30;4.73;;;;;;;;;;10488365;28;20235;-69
2021/04/30 03:23:57;;;;;;;8.40;4.80;;;;;;;;;;10480886;28;20208;-69
2021/04/30 03:28:58;;;;;;;9.77;5.30;;;;;;;;;;10485449;28;20664;-71
2021/04/30 03:34:00;;;;;;;9.83;5.10;;;;;;;;;;10482895;28;20231;-69
2021/04/30 03:39:03;;;;;;;9.17;5.43;;;;;;;;;;10481853;28;20596;-70
2021/04/30 03:44:04;;;;;;;10.93;5.87;;;;;;;;;;10486227;28;20277;-69
2021/04/30 03:49:06;;;;;;;10.93;5.70;;;;;;;;;;10482493;28;20242;-70
2021/04/30 03:54:09;;;;;;;10.23;6.10;;;;;;;;;;10485227;28;20613;-70
2021/04/30 03:59:10;;;;;;;9.80;5.63;;;;;;;;;;10485786;28;20188;-70
2021/04/30 04:04:12;;;;;;;10.67;6.20;;;;;;;;;;10479255;28;20628;-70
2021/04/30 04:09:14;;;;;;;11.33;6.67;;;;;;;;;;10486997;28;20196;-70
2021/04/30 04:14:16;;;;;;;10.67;6.77;;;;;;;;;;10480124;28;20274;-70
2021/04/30 04:19:37;;;;;;;12.47;7.23;;;;;;;;;;10480726;28;20558;-71
2021/04/30 04:24:40;;;;;;;13.67;8.13;;;;;;;;;;10486756;28;20230;-70
2021/04/30 04:29:41;;;;;;;13.23;9.13;;;;;;;;;;10485473;28;20220;-69
2021/04/30 04:34:43;;;;;;;12.97;8.93;;;;;;;;;;10465784;28;20215;-70
2021/04/30 04:39:45;;;;;;;15.33;9.63;;;;;;;;;;10480111;28;20738;-70
2021/04/30 04:44:47;;;;;;;14.53;10.07;;;;;;;;;;10486139;28;20216;-70
2021/04/30 04:49:49;;;;;;;15.60;10.17;;;;;;;;;;10488165;28;20196;-70
2021/04/30 04:54:51;;;;;;;14.53;10.63;;;;;;;;;;10483887;28;20692;-71
2021/04/30 04:59:53;;;;;;;15.73;10.83;;;;;;;;;;10489105;28;20192;-70
2021/04/30 05:04:54;;;;;;;16.10;11.00;;;;;;;;;;10488020;28;20221;-70
2021/04/30 05:09:57;;;;;;;16.40;10.50;;;;;;;;;;10488051;28;20208;-70
2021/04/30 05:14:58;;;;;;;16.57;10.90;;;;;;;;;;10478723;28;20293;-69
2021/04/30 05:20:00;;;;;;;16.10;10.60;;;;;;;;;;10488009;28;20218;-69
2021/04/30 05:25:02;;;;;;;15.10;10.83;;;;;;;;;;10479202;28;20285;-69
2021/04/30 05:30:06;;;;;;;17.97;11.70;;;;;;;;;;10482291;28;20219;-69
2021/04/30 05:35:08;;;;;;;16.40;11.37;;;;;;;;;;10492372;28;20212;-71
2021/04/30 05:40:11;;;;;;;17.67;11.80;;;;;;;;;;10493801;28;20567;-72
2021/04/30 05:45:13;;;;;;;17.83;11.60;;;;;;;;;;10498747;28;20228;-71
2021/04/30 05:50:15;;;;;;;16.30;11.17;;;;;;;;;;10493312;28;20628;-71
2021/04/30 05:55:17;;;;;;;17.40;11.53;;;;;;;;;;10492945;28;20185;-71
2021/04/30 06:00:19;;;;;;;15.87;10.70;;;;;;;;;;10492435;28;20198;-70
2021/04/30 06:05:21;;;;;;;18.30;11.73;;;;;;;;;;10487134;28;20216;-71
2021/04/30 06:10:23;;;;;;;20.40;12.00;;;;;;;;;;10488386;28;20230;-70
2021/04/30 06:15:26;;;;;;;17.30;11.43;;;;;;;;;;10468777;28;20196;-71
2021/04/30 06:20:28;;;;;;;18.07;11.73;;;;;;;;;;10483066;28;20212;-70
2021/04/30 06:25:30;;;;;;;19.07;12.17;;;;;;;;;;10482061;28;20208;-71
2021/04/30 06:30:32;;;;;;;17.37;11.67;;;;;;;;;;10490842;28;20193;-70
2021/04/30 06:35:34;;;;;;;16.47;11.27;;;;;;;;;;10479224;28;20276;-71
2021/04/30 06:40:37;;;;;;;16.03;10.97;;;;;;;;;;10474752;28;20224;-70
2021/04/30 06:45:39;;;;;;;16.93;11.97;;;;;;;;;;10479102;28;20291;-70
2021/04/30 06:50:41;;;;;;;16.27;10.83;;;;;;;;;;10482354;28;20235;-70
2021/04/30 06:55:43;;;;;;;16.47;10.73;;;;;;;;;;10487402;28;20261;-71
2021/04/30 07:00:45;;;;;;;14.57;10.57;;;;;;;;;;10489218;28;20246;-69
2021/04/30 07:05:49;;;;;;;16.77;10.63;;;;;;;;;;10490752;28;20208;-70
2021/04/30 07:10:52;;;;;;;16.10;10.40;;;;;;;;;;10515655;28;20310;-71
2021/04/30 07:15:54;;;;;;;16.03;10.90;;;;;;;;;;10515465;28;20192;-71
2021/04/30 07:20:55;;;;;;;14.60;10.13;;;;;;;;;;10485638;28;20684;-70
2021/04/30 07:25:58;;;;;;;15.03;10.30;;;;;;;;;;10486901;28;20216;-71
2021/04/30 07:31:02;;;;;;;16.30;10.27;;;;;;;;;;10477090;28;20219;-70
2021/04/30 07:36:04;;;;;;;16.60;10.70;;;;;;;;;;10472563;28;20188;-69
2021/04/30 07:41:07;;;;;;;15.93;10.37;;;;;;;;;;10479209;28;20641;-70
2021/04/30 07:46:09;;;;;;;14.37;9.93;;;;;;;;;;10483965;28;20339;-70
2021/04/30 07:51:11;;;;;;;13.53;9.93;;;;;;;;;;10487475;28;20234;-71
2021/04/30 07:56:13;;;;;;;13.83;10.53;;;;;;;;;;10480481;28;20196;-70
2021/04/30 08:01:15;;;;;;;13.37;10.87;;;;;;;;;;10480092;28;20262;-69
2021/04/30 08:06:16;;;;;;;15.40;10.67;;;;;;;;;;10481348;28;20600;-70
2021/04/30 08:11:19;;;;;;;12.77;10.17;;;;;;;;;;10487487;28;20281;-70
2021/04/30 08:16:21;;;;;;;14.40;10.30;;;;;;;;;;10478182;28;20311;-69
2021/04/30 08:21:23;;;;;;;12.90;9.88;;;;;;;;;;10486111;28;20232;-70
2021/04/30 08:26:25;;;;;;;13.50;10.70;;;;;;;;;;10483723;28;20195;-71
2021/04/30 08:31:28;;;;;;;12.25;9.90;;;;;;;;;;10482875;28;20258;-71
2021/04/30 08:36:30;;;;;;;14.90;10.32;;;;;;;;;;10484331;28;20587;-70
2021/04/30 08:41:34;;;;;;;11.73;10.00;;;;;;;;;;10492488;28;20552;-72
2021/04/30 08:46:37;;;;;;;11.85;10.30;;;;;;;;;;10518365;28;20204;-70
2021/04/30 08:51:39;;;;;;;11.93;10.30;;;;;;;;;;10492732;28;20239;-71
2021/04/30 08:56:45;;;;;;;13.02;10.55;;;;;;;;;;10482702;28;20196;-71
2021/04/30 09:01:46;;;;;;;10.57;9.48;;;;;;;;;;10493232;28;20269;-71
2021/04/30 09:06:48;;;;;;;11.35;10.00;;;;;;;;;;10483336;28;20201;-70
2021/04/30 09:11:52;;;;;;;12.23;10.27;;;;;;;;;;10487074;28;20212;-70
2021/04/30 09:17:01;;;;;;;12.40;9.75;;;;;;;;;;10480547;28;20204;-72
2021/04/30 09:22:21;;;;;;;11.77;9.38;;;;;;;;;;10472543;28;20681;-71
2021/04/30 09:27:34;;;;;;;11.43;9.48;;;;;;;;;;10488882;28;20203;-71
2021/04/30 09:32:57;;;;;;;10.80;9.63;;;;;;;;;;10490811;28;20199;-70
2021/04/30 09:37:58;;;;;;;12.60;8.57;;;;;;;;;;10487384;28;20571;-72
2021/04/30 09:43:04;;;;;;;10.43;8.38;;;;;;;;;;10485937;28;20303;-70
2021/04/30 09:48:06;;;;;;;11.63;8.00;;;;;;;;;;10484817;28;20256;-69
2021/04/30 09:53:09;;;;;;;10.40;7.45;;;;;;;;;;10480264;28;20220;-69
2021/04/30 09:58:13;;;;;;;10.77;7.22;;;;;;;;;;10488118;28;20197;-69
2021/04/30 10:03:16;;;;;;;8.95;6.60;;;;;;;;;;10487258;28;20303;-72
2021/04/30 10:08:19;;;;;;;8.32;5.63;;;;;;;;;;10480543;28;20199;-70
2021/04/30 10:13:21;;;;;;;9.95;5.78;;;;;;;;;;10471751;28;20209;-70
2021/04/30 10:18:25;;;;;;;7.22;4.63;;;;;;;;;;10470302;28;20288;-71
2021/04/30 10:23:28;;;;;;;8.68;5.25;;;;;;;;;;10482736;28;20220;-69
2021/04/30 10:28:31;;;;;;;7.38;5.20;;;;;;;;;;10522510;28;20220;-69
2021/04/30 10:33:37;;;;;;;8.27;6.03;;;;;;;;;;10483383;28;20572;-71
2021/04/30 10:38:41;;;;;;;10.32;6.60;;;;;;;;;;10471114;28;20658;-71
2021/04/30 10:43:48;;;;;;;8.02;5.80;;;;;;;;;;10474075;28;20320;-70
2021/04/30 10:49:08;;;;;;;7.15;4.55;;;;;;;;;;10484249;28;20211;-69
2021/04/30 10:54:22;;;;;;;7.53;4.90;;;;;;;;;;10486681;28;20207;-70
2021/04/30 10:59:29;;;;;;;9.48;5.90;;;;;;;;;;10479784;28;20204;-69
2021/04/30 11:04:31;;;;;;;7.63;5.20;;;;;;;;;;10480967;28;20290;-71
2021/04/30 11:09:34;;;;;;;7.65;5.47;;;;;;;;;;10484692;28;20200;-70
2021/04/30 11:14:37;;;;;;;6.55;4.88;;;;;;;;;;10481622;28;20204;-72
2021/04/30 11:19:45;;;;;;;7.60;5.78;;;;;;;;;;10483430;28;20542;-71
2021/04/30 11:24:51;;;;;;;7.47;5.28;;;;;;;;;;10468570;28;20251;-71
2021/04/30 11:30:13;;;;;;;7.82;5.03;;;;;;;;;;10487678;28;20202;-71
2021/04/30 11:35:15;;;;;;;7.07;5.35;;;;;;;;;;10470140;28;20291;-70
2021/04/30 11:40:17;;;;;;;7.30;5.10;;;;;;;;;;10484286;28;20231;-69
2021/04/30 11:45:21;;;;;;;8.82;5.50;;;;;;;;;;10481664;28;20243;-69
2021/04/30 11:50:23;;;;;;;7.32;5.40;;;;;;;;;;10477882;28;20211;-70
2021/04/30 11:55:25;;;;;;;7.28;5.25;;;;;;;;;;10479318;28;20294;-71
2021/04/30 12:00:28;;;;;;;6.80;4.95;;;;;;;;;;10477831;28;20614;-68
2021/04/30 12:05:30;;;;;;;7.22;5.32;;;;;;;;;;10480066;28;20414;-70
2021/04/30 12:10:32;;;;;;;8.57;5.40;;;;;;;;;;10470593;28;20213;-69
2021/04/30 12:15:37;;;;;;;7.68;4.93;;;;;;;;;;10477932;28;20193;-70
2021/04/30 12:20:39;;;;;;;7.25;5.20;;;;;;;;;;10463752;28;20213;-70
2021/04/30 12:25:43;;;;;;;7.90;5.50;;;;;;;;;;10485520;28;20282;-72
2021/04/30 12:30:46;;;;;;;7.18;5.47;;;;;;;;;;10480303;28;20591;-71
2021/04/30 12:35:48;;;;;;;8.68;6.43;;;;;;;;;;10467859;28;20193;-71
2021/04/30 12:40:53;;;;;;;9.13;5.90;;;;;;;;;;10477020;28;20218;-69
2021/04/30 12:45:56;;;;;;;7.80;5.68;;;;;;;;;;10483872;28;20586;-70
2021/04/30 12:50:58;;;;;;;8.55;6.60;;;;;;;;;;10459743;28;20236;-69
2021/04/30 12:56:00;;;;;;;8.27;6.20;;;;;;;;;;10501194;28;20184;-72
2021/04/30 13:01:04;;;;;;;9.68;7.75;;;;;;;;;;10481254;28;20208;-71
2021/04/30 13:06:07;;;;;;;8.90;6.03;;;;;;;;;;10462664;28;20309;-70
2021/04/30 13:11:10;;;;;;;8.00;6.10;;;;;;;;;;10466379;28;20217;-71
2021/04/30 13:16:13;;;;;;;9.02;6.47;;;;;;;;;;10474469;28;20669;-70
2021/04/30 13:21:15;;;;;;;9.00;5.78;;;;;;;;;;10476498;28;20212;-71
2021/04/30 13:26:21;;;;;;;9.32;6.93;;;;;;;;;;10473634;28;20659;-70
2021/04/30 13:31:23;;;;;;;8.40;5.70;;;;;;;;;;10485506;28;20261;-70
2021/04/30 13:36:25;;;;;;;8.25;5.10;;;;;;;;;;10483803;28;20192;-71
2021/04/30 13:41:35;;;;;;;7.40;5.22;;;;;;;;;;10487843;28;20748;-71
2021/04/30 13:46:37;;;;;;;7.97;5.05;;;;;;;;;;10520026;28;20216;-71
2021/04/30 13:51:39;;;;;;;7.20;4.47;;;;;;;;;;10483875;28;20281;-71
2021/04/30 13:56:41;;;;;;;7.20;5.10;;;;;;;;;;10485803;28;20208;-71
2021/04/30 14:01:43;;;;;;;7.45;4.47;;;;;;;;;;10487820;28;20273;-71
2021/04/30 14:06:47;;;;;;;6.38;4.38;;;;;;;;;;10484810;28;20247;-71
2021/04/30 14:11:49;;;;;;;7.55;4.43;;;;;;;;;;10482817;28;20710;-71
2021/04/30 14:16:51;;;;;;;7.07;4.60;;;;;;;;;;10476555;28;20195;-71
2021/04/30 14:21:53;;;;;;;7.32;5.00;;;;;;;;;;10483966;28;20624;-72
2021/04/30 14:26:55;;;;;;;9.10;5.07;;;;;;;;;;10480382;28;20667;-71
2021/04/30 14:31:58;;;;;;;7.65;4.75;;;;;;;;;;10489194;28;20235;-70
2021/04/30 14:36:59;;;;;;;7.40;5.10;;;;;;;;;;10486308;28;20197;-71
2021/04/30 14:42:02;;;;;;;8.18;5.05;;;;;;;;;;10473734;28;20223;-70
2021/04/30 14:47:04;;;;;;;6.53;4.10;;;;;;;;;;10482465;28;20262;-70
2021/04/30 14:52:08;;;;;;;6.90;4.40;;;;;;;;;;10486847;28;20273;-71
2021/04/30 14:57:10;;;;;;;7.55;4.40;;;;;;;;;;10476336;28;20594;-70
2021/04/30 15:02:16;;;;;;;9.57;6.38;;;;;;;;;;10482249;28;20228;-71
2021/04/30 15:07:17;;;;;;;9.77;7.18;;;;;;;;;;10480066;28;20302;-69
2021/04/30 15:12:19;;;;;;;10.63;7.95;;;;;;;;;;10469202;28;20287;-70
2021/04/30 15:17:22;;;;;;;10.73;8.27;;;;;;;;;;10480916;28;20609;-69
2021/04/30 15:22:24;;;;;;;9.20;7.13;;;;;;;;;;10463287;28;20213;-70
2021/04/30 15:27:26;;;;;;;9.57;7.63;;;;;;;;;;10457785;28;20534;-69
2021/04/30 15:32:29;;;;;;;11.00;7.40;;;;;;;;;;10470349;28;20208;-70
2021/04/30 15:37:31;;;;;;;9.50;7.07;;;;;;;;;;10479025;28;20332;-70
2021/04/30 15:42:33;;;;;;;10.77;7.73;;;;;;;;;;10470284;28;20602;-70
2021/04/30 15:47:36;;;;;;;10.67;7.40;;;;;;;;;;10495008;28;20200;-70
2021/04/30 15:52:39;;;;;;;11.07;7.20;;;;;;;;;;10493554;28;20201;-69
2021/04/30 15:57:41;;;;;;;13.57;8.13;;;;;;;;;;10493615;28;20754;-70
2021/04/30 16:02:44;;;;;;;11.67;8.33;;;;;;;;;;10498000;28;20205;-71
2021/04/30 16:07:46;;;;;;;12.80;8.53;;;;;;;;;;10498241;28;20200;-70
2021/04/30 16:12:48;;;;;;;13.47;8.93;;;;;;;;;;10497362;28;20238;-70
2021/04/30 16:17:50;;;;;;;15.67;9.80;;;;;;;;;;10493822;28;20195;-70
2021/04/30 16:22:52;;;;;;;13.53;10.43;;;;;;;;;;10491565;28;20216;-71
2021/04/30 16:27:54;;;;;;;15.33;9.77;;;;;;;;;;10492861;28;20188;-70
2021/04/30 16:33:16;;;;;;;17.20;10.67;;;;;;;;;;10501395;28;20310;-70
2021/04/30 16:38:18;;;;;;;16.67;11.50;;;;;;;;;;10497962;28;20231;-71
2021/04/30 16:43:21;;;;;;;19.00;12.80;;;;;;;;;;10505844;28;20247;-70
2021/04/30 16:48:43;;;;;;;18.17;11.47;;;;;;;;;;10498791;28;20219;-71
2021/04/30 16:53:45;;;;;;;19.10;11.10;;;;;;;;;;10494624;28;20626;-71
2021/04/30 16:58:48;;;;;;;18.70;11.27;;;;;;;;;;10488675;28;20608;-70
2021/04/30 17:03:51;;;;;;;16.97;11.80;;;;;;;;;;10509812;28;20230;-67
2021/04/30 17:08:53;;;;;;;19.77;12.87;;;;;;;;;;10507608;28;20204;-69
2021/04/30 17:13:55;;;;;;;19.57;12.53;;;;;;;;;;10493637;28;20291;-69
2021/04/30 17:18:57;;;;;;;17.47;12.47;;;;;;;;;;10506897;28;20339;-71
2021/04/30 17:24:00;;;;;;;15.97;11.40;;;;;;;;;;10507716;28;20289;-71
2021/04/30 17:29:02;;;;;;;16.00;11.23;;;;;;;;;;10507470;28;20200;-70
2021/04/30 17:34:05;;;;;;;14.90;9.90;;;;;;;;;;10505410;28;20212;-70
2021/04/30 17:39:07;;;;;;;17.07;10.97;;;;;;;;;;10504705;28;20279;-70
2021/04/30 17:44:08;;;;;;;17.10;9.93;;;;;;;;;;10508210;28;20315;-70
2021/04/30 17:49:11;;;;;;;15.13;10.87;;;;;;;;;;10498986;28;20280;-70
2021/04/30 17:54:12;;;;;;;16.60;10.90;;;;;;;;;;10489482;28;20702;-70
2021/04/30 17:59:14;;;;;;;15.73;10.80;;;;;;;;;;10487967;28;20196;-68
2021/04/30 18:04:17;;;;;;;17.43;11.43;;;;;;;;;;10479987;28;20698;-69
2021/04/30 18:09:19;;;;;;;15.07;10.57;;;;;;;;;;10494008;28;20204;-71
2021/04/30 18:14:20;;;;;;;17.13;10.47;;;;;;;;;;10487586;28;20215;-69
2021/04/30 18:19:23;;;;;;;14.77;10.10;;;;;;;;;;10490437;28;20265;-68
2021/04/30 18:24:29;;;;;;;17.57;11.90;;;;;;;;;;10494814;28;20680;-70
2021/04/30 18:29:31;;;;;;;16.73;9.90;;;;;;;;;;10504679;28;20287;-69
2021/04/30 18:34:33;;;;;;;17.67;12.10;;;;;;;;;;10490619;28;20254;-70
2021/04/30 18:39:54;;;;;;;18.33;11.73;;;;;;;;;;10499570;28;20275;-71
2021/04/30 18:44:56;;;;;;;21.33;13.50;;;;;;;;;;10506226;28;20218;-70
2021/04/30 18:49:58;;;;;;;17.37;12.37;;;;;;;;;;10479501;28;20208;-70
2021/04/30 18:55:02;;;;;;;19.47;12.97;;;;;;;;;;10500401;28;20306;-71
2021/04/30 19:00:04;;;;;;;20.93;13.40;;;;;;;;;;10496311;28;20188;-71
2021/04/30 19:05:08;;;;;;;21.60;14.50;;;;;;;;;;10493966;28;20269;-69
2021/04/30 19:10:11;;;;;;;23.10;15.40;;;;;;;;;;10478568;28;20294;-71
2021/04/30 19:15:14;;;;;;;21.27;13.37;;;;;;;;;;10469157;28;20240;-71
2021/04/30 19:20:17;;;;;;;21.83;15.03;;;;;;;;;;10461055;28;20193;-68
2021/04/30 19:25:20;;;;;;;20.77;14.63;;;;;;;;;;10477328;28;20219;-71
2021/04/30 19:30:28;;;;;;;23.40;16.70;;;;;;;;;;10479045;28;20269;-71
2021/04/30 19:35:34;;;;;;;22.00;14.10;;;;;;;;;;10479100;28;20553;-70
2021/04/30 19:40:37;;;;;;;22.77;13.50;;;;;;;;;;10481104;28;20194;-69
2021/04/30 19:45:38;;;;;;;22.20;14.57;;;;;;;;;;10483973;28;20292;-70
2021/04/30 19:50:41;;;;;;;24.20;17.20;;;;;;;;;;10490303;28;20200;-71
2021/04/30 19:55:43;;;;;;;24.30;16.83;;;;;;;;;;10486431;28;20195;-69
2021/04/30 20:00:44;;;;;;;23.20;16.43;;;;;;;;;;10483259;28;20212;-70
2021/04/30 20:05:47;;;;;;;24.23;16.50;;;;;;;;;;10474017;28;20683;-70
2021/04/30 20:10:50;;;;;;;22.40;13.53;;;;;;;;;;10485722;28;20212;-70
2021/04/30 20:16:07;;;;;;;22.57;15.27;;;;;;;;;;10479219;28;20185;-67
2021/04/30 20:21:10;;;;;;;15.30;9.17;;;;;;;;;;10463913;28;20441;-67
2021/04/30 20:26:12;;;;;;;17.10;10.40;;;;;;;;;;10495372;28;20207;-67
2021/04/30 20:31:14;;;;;;;21.47;14.60;;;;;;;;;;10491534;28;20285;-70
2021/04/30 20:36:17;;;;;;;19.77;12.13;;;;;;;;;;10491157;28;20387;-67
2021/04/30 20:41:18;;;;;;;20.50;13.33;;;;;;;;;;10485657;28;20220;-70
2021/04/30 20:46:21;;;;;;;21.70;15.20;;;;;;;;;;10507442;28;20264;-69
2021/04/30 20:51:24;;;;;;;23.10;16.10;;;;;;;;;;10501735;28;20274;-72
2021/04/30 20:56:26;;;;;;;19.13;12.13;;;;;;;;;;10496132;28;20201;-71
2021/04/30 21:01:27;;;;;;;24.13;15.53;;;;;;;;;;10499650;28;20638;-72
2021/04/30 21:06:30;;;;;;;21.50;14.03;;;;;;;;;;10487607;28;20216;-71
2021/04/30 21:11:45;;;;;;;19.37;13.33;;;;;;;;;;10490652;28;20219;-70
2021/04/30 21:16:47;;;;;;;21.43;14.67;;;;;;;;;;10526894;28;20660;-70
2021/04/30 21:21:49;;;;;;;22.40;15.30;;;;;;;;;;10517141;28;20219;-71
2021/04/30 21:26:53;;;;;;;23.93;15.50;;;;;;;;;;10497539;28;20308;-71
2021/04/30 21:31:55;;;;;;;19.83;12.73;;;;;;;;;;10487831;28;20266;-70
2021/04/30 21:36:57;;;;;;;19.17;12.53;;;;;;;;;;10482954;28;20631;-71
2021/04/30 21:41:59;;;;;;;22.23;13.97;;;;;;;;;;10509133;28;20228;-70
2021/04/30 21:47:01;;;;;;;22.17;14.10;;;;;;;;;;10511059;28;20221;-70
2021/04/30 21:52:03;;;;;;;22.30;15.00;;;;;;;;;;10483773;28;20216;-71
2021/04/30 21:57:05;;;;;;;19.27;13.30;;;;;;;;;;10486246;28;20180;-70
2021/04/30 22:02:07;;;;;;;21.73;14.27;;;;;;;;;;10490183;28;20575;-70
2021/04/30 22:07:12;;;;;;;23.67;14.73;;;;;;;;;;10489060;28;20211;-70
2021/04/30 22:12:14;;;;;;;21.93;13.97;;;;;;;;;;10486553;28;20223;-70
2021/04/30 22:17:36;;;;;;;23.37;16.07;;;;;;;;;;10486996;28;20196;-69
2021/04/30 22:22:58;;;;;;;22.57;15.37;;;;;;;;;;10484354;28;20229;-69
2021/04/30 22:28:00;;;;;;;21.90;15.03;;;;;;;;;;10485835;28;20653;-70
2021/04/30 22:33:01;;;;;;;17.23;9.73;;;;;;;;;;10489654;28;20208;-70
2021/04/30 22:38:04;;;;;;;19.23;11.87;;;;;;;;;;10519199;28;20219;-70
2021/04/30 22:43:05;;;;;;;21.93;14.07;;;;;;;;;;10487961;28;20366;-70
2021/04/30 22:48:07;;;;;;;22.47;15.13;;;;;;;;;;10487939;28;20196;-71
2021/04/30 22:53:09;;;;;;;23.27;15.23;;;;;;;;;;10486404;28;20312;-70
2021/04/30 22:58:11;;;;;;;20.67;13.63;;;;;;;;;;10487711;28;20519;-71
2021/04/30 23:03:13;;;;;;;22.70;14.80;;;;;;;;;;10495475;28;20222;-71
2021/04/30 23:08:15;;;;;;;22.23;14.97;;;;;;;;;;10481199;28;20815;-72
2021/04/30 23:13:18;;;;;;;22.47;14.70;;;;;;;;;;10487668;28;20211;-71
2021/04/30 23:18:19;;;;;;;21.70;14.57;;;;;;;;;;10484170;28;20215;-71
2021/04/30 23:23:22;;;;;;;21.57;14.63;;;;;;;;;;10489922;28;20295;-71
2021/04/30 23:28:23;;;;;;;23.23;15.43;;;;;;;;;;10484736;28;20540;-70
2021/04/30 23:33:25;;;;;;;21.33;14.70;;;;;;;;;;10484511;28;20289;-71
2021/04/30 23:38:27;;;;;;;23.60;15.03;;;;;;;;;;10477268;28;20200;-71
2021/04/30 23:43:29;;;;;;;20.63;14.13;;;;;;;;;;10481024;28;20281;-70
2021/04/30 23:48:30;;;;;;;22.37;15.00;;;;;;;;;;10520589;28;20215;-69
2021/04/30 23:53:33;;;;;;;20.17;13.33;;;;;;;;;;10481300;28;20564;-70
2021/04/30 23:58:34;;;;;;;21.63;14.37;;;;;;;;;;10487992;28;20216;-71
